Airport View

Enter AWOS ICAO identifier for current METAR.

ex. KFNL

29 Sep 2020 05:04

Frequency: 121.55

Phone: 907-955-3896

Other Area AWOS: PFEL - PAUN - PAKK - PAGL

TAF PAUN 282332Z 2900/2924 23003KT P6SM BKN200 FM291600 08005KT P6SM BKN040